createdAt,value
2023-01-17T00:02:23.712Z,22.90
2023-01-17T00:04:52.048Z,24.63
2023-01-17T00:07:22.352Z,20.73
2023-01-17T00:09:50.588Z,19.75
2023-01-17T00:12:19.087Z,20.38
2023-01-17T00:14:48.473Z,17.98
2023-01-17T00:17:16.750Z,23.08
2023-01-17T00:19:45.119Z,23.48
2023-01-17T00:22:22.991Z,22.20
2023-01-17T00:24:51.394Z,23.92
2023-01-17T00:27:19.594Z,21.75
2023-01-17T00:29:47.794Z,19.23
2023-01-17T00:32:17.281Z,21.83
2023-01-17T00:34:45.387Z,19.65
2023-01-17T00:37:13.598Z,21.98
2023-01-17T00:39:41.911Z,20.45
2023-01-17T00:42:10.306Z,20.75
2023-01-17T00:44:38.679Z,22.73
2023-01-17T00:47:06.813Z,22.15
2023-01-17T00:49:35.094Z,22.10
2023-01-17T00:52:03.205Z,19.88
2023-01-17T00:54:31.392Z,20.55
2023-01-17T00:56:59.821Z,22.83
2023-01-17T00:59:28.198Z,19.58
2023-01-17T01:01:56.523Z,19.65
2023-01-17T01:04:24.670Z,20.70
2023-01-17T01:06:52.975Z,23.30
2023-01-17T01:09:21.191Z,19.67
2023-01-17T01:11:51.052Z,20.38
2023-01-17T01:14:19.480Z,22.55
2023-01-17T01:16:48.065Z,19.90
2023-01-17T01:19:16.296Z,21.05
2023-01-17T01:21:45.129Z,24.05
2023-01-17T01:26:41.084Z,20.75
2023-01-17T01:29:09.312Z,22.50
2023-01-17T01:31:38.873Z,27.35
2023-01-17T01:34:07.180Z,23.20
2023-01-17T01:36:35.409Z,20.20
2023-01-17T01:39:03.583Z,24.48
2023-01-17T01:41:32.279Z,21.00
2023-01-17T01:44:00.610Z,20.38
2023-01-17T01:46:48.258Z,19.65
2023-01-17T01:49:23.662Z,19.05
2023-01-17T01:52:01.233Z,22.13
2023-01-17T01:54:51.952Z,25.58
2023-01-17T01:57:24.252Z,19.45
2023-01-17T02:00:21.293Z,19.92
2023-01-17T02:02:50.727Z,25.10
2023-01-17T02:05:23.190Z,21.83
2023-01-17T02:08:03.833Z,19.58
2023-01-17T02:10:37.260Z,22.17
2023-01-17T02:13:07.847Z,22.83
2023-01-17T02:15:54.485Z,19.83
2023-01-17T02:18:35.536Z,21.67
2023-01-17T02:21:13.227Z,19.88
2023-01-17T02:24:06.109Z,20.13
2023-01-17T02:27:14.332Z,21.17
2023-01-17T02:30:10.693Z,21.20
2023-01-17T02:33:02.963Z,20.52
2023-01-17T02:35:43.271Z,22.48
2023-01-17T02:38:42.038Z,23.13
2023-01-17T02:41:19.986Z,23.40
2023-01-17T02:43:51.183Z,21.17
2023-01-17T02:46:19.659Z,20.17
2023-01-17T02:48:49.196Z,19.08
2023-01-17T02:51:29.877Z,24.75
2023-01-17T02:54:43.474Z,23.48
2023-01-17T02:57:21.017Z,21.98
2023-01-17T03:00:11.358Z,21.55
2023-01-17T03:02:48.512Z,22.02
2023-01-17T03:05:50.209Z,22.02
2023-01-17T03:08:19.892Z,24.23
2023-01-17T03:10:48.346Z,23.20
2023-01-17T03:13:16.761Z,21.13
2023-01-17T03:15:45.721Z,20.90
2023-01-17T03:18:17.532Z,22.20
2023-01-17T03:20:45.811Z,20.65
2023-01-17T03:23:13.960Z,21.83
2023-01-17T03:25:42.191Z,19.52
2023-01-17T03:28:11.606Z,25.05
2023-01-17T03:30:39.875Z,19.92
2023-01-17T03:33:07.985Z,25.27
2023-01-17T03:35:36.368Z,23.88
2023-01-17T03:38:04.604Z,20.38
2023-01-17T03:40:32.839Z,19.90
2023-01-17T03:43:00.988Z,21.95
2023-01-17T03:45:29.317Z,24.02
2023-01-17T03:47:57.530Z,18.20
2023-01-17T03:50:26.155Z,22.52
2023-01-17T03:55:22.359Z,18.17
2023-01-17T03:57:50.713Z,19.63
2023-01-17T04:00:19.423Z,18.92
2023-01-17T04:05:15.611Z,18.13
2023-01-17T04:07:44.445Z,20.58
2023-01-17T04:12:40.615Z,18.27
2023-01-17T04:15:09.103Z,17.75
2023-01-17T04:17:37.280Z,20.15
2023-01-17T04:20:06.173Z,17.75
2023-01-17T04:22:34.612Z,17.80
2023-01-17T04:25:02.953Z,18.02
2023-01-17T04:27:31.159Z,18.02
2023-01-17T04:29:59.389Z,16.33
2023-01-17T04:32:27.958Z,16.98
2023-01-17T04:34:56.157Z,17.88
2023-01-17T04:37:24.399Z,17.27
2023-01-17T04:39:52.616Z,19.20
2023-01-17T04:42:20.783Z,17.50
2023-01-17T04:44:48.956Z,16.85
2023-01-17T04:47:17.164Z,17.75
2023-01-17T04:49:45.377Z,16.58
2023-01-17T04:52:13.643Z,16.27
2023-01-17T04:54:42.492Z,17.67
2023-01-17T04:57:11.040Z,16.40
2023-01-17T04:59:39.429Z,18.40
2023-01-17T05:02:07.540Z,15.95
2023-01-17T05:04:35.832Z,18.88
2023-01-17T05:07:04.584Z,17.17
2023-01-17T05:09:32.716Z,15.80
2023-01-17T05:12:01.149Z,17.90
2023-01-17T05:14:29.380Z,18.27
2023-01-17T05:16:58.200Z,17.05
2023-01-17T05:19:27.604Z,16.17
2023-01-17T05:21:55.875Z,16.02
2023-01-17T05:24:24.139Z,17.00
2023-01-17T05:26:52.387Z,15.77
2023-01-17T05:29:21.136Z,16.02
2023-01-17T05:34:17.425Z,15.05
2023-01-17T05:36:45.666Z,16.58
2023-01-17T05:39:14.019Z,15.88
2023-01-17T05:41:42.258Z,15.98
2023-01-17T05:44:10.584Z,13.63
2023-01-17T05:46:39.159Z,15.65
2023-01-17T05:49:07.342Z,15.77
2023-01-17T05:51:35.533Z,15.25
2023-01-17T05:54:04.882Z,14.48
2023-01-17T05:56:33.619Z,15.25
2023-01-17T06:01:29.843Z,15.43
2023-01-17T06:03:58.226Z,15.60
2023-01-17T06:06:26.452Z,16.80
2023-01-17T06:08:54.682Z,15.27
2023-01-17T06:11:22.926Z,14.75
2023-01-17T06:13:51.217Z,14.80
2023-01-17T06:16:19.426Z,16.10
2023-01-17T06:18:47.816Z,14.32
2023-01-17T06:21:15.907Z,16.10
2023-01-17T06:23:44.275Z,17.55
2023-01-17T06:26:12.493Z,16.55
2023-01-17T06:28:40.589Z,15.02
2023-01-17T06:31:09.635Z,19.42
2023-01-17T06:33:37.918Z,14.38
2023-01-17T06:36:06.393Z,13.70
2023-01-17T06:38:34.699Z,15.25
2023-01-17T06:41:06.811Z,14.20
2023-01-17T06:43:34.995Z,14.27
2023-01-17T06:46:03.268Z,16.10
2023-01-17T06:48:32.792Z,13.73
2023-01-17T06:51:01.045Z,14.45
2023-01-17T06:53:29.403Z,15.75
2023-01-17T06:55:58.181Z,13.63
2023-01-17T07:00:54.827Z,14.18
2023-01-17T07:03:25.387Z,13.85
2023-01-17T07:05:54.084Z,14.02
2023-01-17T07:10:50.516Z,14.20
2023-01-17T07:13:18.859Z,13.45
2023-01-17T07:15:47.071Z,15.02
2023-01-17T07:18:15.192Z,19.98
2023-01-17T07:20:44.342Z,16.95
2023-01-17T07:23:12.890Z,18.27
2023-01-17T07:25:40.972Z,19.48
2023-01-17T07:28:09.679Z,19.38
2023-01-17T07:33:05.769Z,19.95
2023-01-17T07:35:34.107Z,19.75
2023-01-17T07:38:02.404Z,16.20
2023-01-17T07:40:31.211Z,19.50
2023-01-17T07:43:04.067Z,16.55
2023-01-17T07:45:32.588Z,20.25
2023-01-17T07:48:00.938Z,15.40
2023-01-17T07:50:29.182Z,16.38
2023-01-17T07:52:57.408Z,17.42
2023-01-17T07:55:25.514Z,16.13
2023-01-17T07:57:53.990Z,15.95
2023-01-17T08:00:22.718Z,14.27
2023-01-17T08:02:50.992Z,15.13
2023-01-17T08:05:19.419Z,14.90
2023-01-17T08:07:47.673Z,19.17
2023-01-17T08:10:16.154Z,15.63
2023-01-17T08:12:49.875Z,14.68
2023-01-17T08:15:18.855Z,16.40
2023-01-17T08:17:48.892Z,15.65
2023-01-17T08:20:17.320Z,13.32
2023-01-17T08:22:45.482Z,14.73
2023-01-17T08:25:13.939Z,16.77
2023-01-17T08:27:42.053Z,16.02
2023-01-17T08:30:10.807Z,17.45
2023-01-17T08:35:07.610Z,19.27
2023-01-17T08:37:35.920Z,14.93
2023-01-17T08:40:05.135Z,16.83
2023-01-17T08:42:33.423Z,19.05
2023-01-17T08:45:01.563Z,16.92
2023-01-17T08:47:29.910Z,15.05
2023-01-17T08:49:58.227Z,23.40
2023-01-17T08:52:26.707Z,21.13
2023-01-17T08:54:55.291Z,18.00
2023-01-17T08:57:23.713Z,18.20
2023-01-17T08:59:54.461Z,17.98
2023-01-17T09:02:22.679Z,17.08
2023-01-17T09:04:51.573Z,19.67
2023-01-17T09:07:20.908Z,19.98
2023-01-17T09:09:49.266Z,18.88
2023-01-17T09:12:17.490Z,17.73
2023-01-17T09:14:45.632Z,17.17
2023-01-17T09:17:14.597Z,18.45
2023-01-17T09:19:43.856Z,16.80
2023-01-17T09:22:15.204Z,15.18
2023-01-17T09:24:43.572Z,18.13
2023-01-17T09:27:11.728Z,18.48
2023-01-17T09:29:39.928Z,15.85
2023-01-17T09:32:08.290Z,15.55
2023-01-17T09:34:36.618Z,15.00
2023-01-17T09:37:05.036Z,15.90
2023-01-17T09:39:33.183Z,13.55
2023-01-17T09:42:40.901Z,14.70
2023-01-17T09:45:17.970Z,16.65
2023-01-17T09:47:55.245Z,15.10
2023-01-17T09:50:34.093Z,14.38
2023-01-17T09:53:15.471Z,14.32
2023-01-17T09:56:06.252Z,14.60
2023-01-17T09:58:43.630Z,14.48
2023-01-17T10:01:30.713Z,13.95
2023-01-17T10:04:12.207Z,14.93
2023-01-17T10:07:03.474Z,15.90
2023-01-17T10:09:49.677Z,18.25
2023-01-17T10:12:27.052Z,14.98
2023-01-17T10:15:20.285Z,15.20
2023-01-17T10:18:03.771Z,16.67
2023-01-17T10:20:44.101Z,15.18
2023-01-17T10:23:18.449Z,16.40
2023-01-17T10:25:51.618Z,13.70
2023-01-17T10:28:29.637Z,13.65
2023-01-17T10:31:06.826Z,13.65
2023-01-17T10:33:49.384Z,17.17
2023-01-17T10:36:30.764Z,14.02
2023-01-17T10:39:03.203Z,14.10
2023-01-17T10:41:45.579Z,14.50
2023-01-17T10:44:29.504Z,14.88
2023-01-17T10:47:07.049Z,16.92
2023-01-17T10:49:36.840Z,16.50
2023-01-17T10:52:12.896Z,14.23
2023-01-17T10:55:05.797Z,14.25
2023-01-17T10:57:48.728Z,13.82
2023-01-17T11:00:40.566Z,16.15
2023-01-17T11:03:12.557Z,14.93
2023-01-17T11:05:41.823Z,16.35
2023-01-17T11:08:12.950Z,17.33
2023-01-17T11:10:53.594Z,15.43
2023-01-17T11:13:29.512Z,15.45
2023-01-17T11:16:01.259Z,15.82
2023-01-17T11:18:32.523Z,14.43
2023-01-17T11:21:26.682Z,16.85
2023-01-17T11:23:56.656Z,14.77
2023-01-17T11:26:33.442Z,15.75
2023-01-17T11:29:36.835Z,13.57
2023-01-17T11:32:37.475Z,17.50
2023-01-17T11:35:13.289Z,16.95
2023-01-17T11:37:49.852Z,14.20
2023-01-17T11:40:30.230Z,14.95
2023-01-17T11:43:21.569Z,14.55
2023-01-17T11:46:14.250Z,13.57
2023-01-17T11:48:47.663Z,15.15
2023-01-17T11:51:32.390Z,18.27
2023-01-17T11:54:15.640Z,13.32
2023-01-17T11:56:44.682Z,14.52
2023-01-17T11:59:30.902Z,14.80
2023-01-17T12:02:04.992Z,13.55
2023-01-17T12:04:41.807Z,14.77
2023-01-17T12:07:46.533Z,16.70
2023-01-17T12:10:48.348Z,15.77
2023-01-17T12:13:23.001Z,16.48
2023-01-17T12:16:00.423Z,18.58
2023-01-17T12:18:47.663Z,16.23
2023-01-17T12:21:18.174Z,13.50
2023-01-17T12:23:52.208Z,15.15
2023-01-17T12:26:41.515Z,15.55
2023-01-17T12:29:33.892Z,15.93
2023-01-17T12:32:31.712Z,14.80
2023-01-17T12:35:34.889Z,17.02
2023-01-17T12:38:10.542Z,18.67
2023-01-17T12:41:07.807Z,15.85
2023-01-17T12:43:40.115Z,16.33
2023-01-17T12:46:26.797Z,18.02
2023-01-17T12:49:15.201Z,15.85
2023-01-17T12:51:47.345Z,16.50
2023-01-17T12:54:28.044Z,13.63
2023-01-17T12:57:06.313Z,15.13
2023-01-17T12:59:40.404Z,17.02
2023-01-17T13:02:27.711Z,23.08
2023-01-17T13:05:22.087Z,15.50
2023-01-17T13:07:56.871Z,19.35
2023-01-17T13:11:04.485Z,15.95
2023-01-17T13:13:34.602Z,14.75
2023-01-17T13:16:17.435Z,16.23
2023-01-17T13:18:48.422Z,15.48
2023-01-17T13:21:42.981Z,15.85
2023-01-17T13:24:28.622Z,18.17
2023-01-17T13:26:57.047Z,13.82
2023-01-17T13:30:00.771Z,13.55
2023-01-17T13:32:47.333Z,16.40
2023-01-17T13:35:37.971Z,14.48
2023-01-17T13:38:25.532Z,15.35
2023-01-17T13:41:06.026Z,18.98
2023-01-17T13:43:43.883Z,15.52
2023-01-17T13:46:12.308Z,14.05
2023-01-17T13:48:40.601Z,19.20
2023-01-17T13:51:12.465Z,18.35
2023-01-17T13:53:40.646Z,15.88
2023-01-17T13:56:24.226Z,17.85
2023-01-17T13:58:52.498Z,14.98
2023-01-17T14:01:23.628Z,13.13
2023-01-17T14:03:52.067Z,15.63
2023-01-17T14:06:43.457Z,16.52
2023-01-17T14:09:14.010Z,13.93
2023-01-17T14:14:40.941Z,17.90
2023-01-17T14:17:21.495Z,17.02
2023-01-17T14:19:54.561Z,16.48
2023-01-17T14:22:25.065Z,14.90
2023-01-17T14:25:13.423Z,12.93
2023-01-17T14:27:44.397Z,18.65
2023-01-17T14:30:21.840Z,15.90
2023-01-17T14:33:02.382Z,14.85
2023-01-17T14:35:33.367Z,18.95
2023-01-17T14:38:01.989Z,15.10
2023-01-17T14:40:36.303Z,16.13
2023-01-17T14:43:27.260Z,15.73
2023-01-17T14:46:02.177Z,14.40
2023-01-17T14:48:31.083Z,16.85
2023-01-17T14:51:00.186Z,16.23
2023-01-17T14:53:33.313Z,15.38
2023-01-17T14:56:17.145Z,15.70
2023-01-17T14:58:45.644Z,15.95
2023-01-17T15:03:48.808Z,12.98
2023-01-17T15:06:40.089Z,16.08
2023-01-17T15:09:30.091Z,13.55
2023-01-17T15:11:59.136Z,13.57
2023-01-17T15:14:33.774Z,19.75
2023-01-17T15:17:22.607Z,13.32
2023-01-17T15:20:05.377Z,16.10
2023-01-17T15:22:34.464Z,17.30
2023-01-17T15:25:03.228Z,14.35
2023-01-17T15:27:32.222Z,13.60
2023-01-17T15:30:01.210Z,15.32
2023-01-17T15:32:29.572Z,19.10
2023-01-17T15:34:58.180Z,13.90
2023-01-17T15:37:39.251Z,17.23
2023-01-17T15:40:25.665Z,17.10
2023-01-17T15:43:01.032Z,15.23
2023-01-17T15:45:32.102Z,17.02
2023-01-17T15:48:35.316Z,17.05
2023-01-17T15:51:03.608Z,18.15
2023-01-17T15:53:35.987Z,19.33
2023-01-17T15:56:31.360Z,21.20
2023-01-17T15:59:21.607Z,16.48
2023-01-17T16:01:59.818Z,19.40
2023-01-17T16:04:37.419Z,16.23
2023-01-17T16:07:19.278Z,16.13
2023-01-17T16:09:48.540Z,16.20
2023-01-17T16:12:16.768Z,16.50
2023-01-17T16:15:02.805Z,15.45
2023-01-17T16:17:33.563Z,15.82
2023-01-17T16:20:02.004Z,16.75
2023-01-17T16:22:30.193Z,16.25
2023-01-17T16:24:58.601Z,14.40
2023-01-17T16:27:26.993Z,16.27
2023-01-17T16:29:56.436Z,17.95
2023-01-17T16:32:24.819Z,15.18
2023-01-17T16:34:52.972Z,14.50
2023-01-17T16:37:22.148Z,14.65
2023-01-17T16:39:50.470Z,16.70
2023-01-17T16:42:18.724Z,14.30
2023-01-17T16:44:47.050Z,15.63
2023-01-17T16:47:15.168Z,16.15
2023-01-17T16:49:43.391Z,13.20
2023-01-17T16:52:11.790Z,14.98
2023-01-17T16:54:40.037Z,16.27
2023-01-17T16:57:08.320Z,12.68
2023-01-17T16:59:49.960Z,19.52
2023-01-17T17:02:18.984Z,19.42
2023-01-17T17:04:47.445Z,15.43
2023-01-17T17:07:15.855Z,19.63
2023-01-17T17:09:44.183Z,15.68
2023-01-17T17:12:12.547Z,15.82
2023-01-17T17:14:40.648Z,16.95
2023-01-17T17:17:09.292Z,17.42
2023-01-17T17:19:37.780Z,20.15
2023-01-17T17:22:06.005Z,16.13
2023-01-17T17:24:34.243Z,18.52
2023-01-17T17:27:02.445Z,14.45
2023-01-17T17:29:30.695Z,14.73
2023-01-17T17:31:59.029Z,14.50
2023-01-17T17:34:27.393Z,16.45
2023-01-17T17:36:55.666Z,17.02
2023-01-17T17:39:24.391Z,15.68
2023-01-17T17:41:52.529Z,14.55
2023-01-17T17:44:20.855Z,14.55
2023-01-17T17:46:49.096Z,18.58
2023-01-17T17:49:17.327Z,16.30
2023-01-17T17:51:45.686Z,15.07
2023-01-17T17:54:15.680Z,13.23
2023-01-17T17:56:44.825Z,15.82
2023-01-17T17:59:14.581Z,14.25
2023-01-17T18:01:42.862Z,15.25
2023-01-17T18:04:11.827Z,16.77
2023-01-17T18:06:41.051Z,16.58
2023-01-17T18:09:10.864Z,14.45
2023-01-17T18:11:41.477Z,15.98
2023-01-17T18:14:12.674Z,17.75
2023-01-17T18:16:43.649Z,12.70
2023-01-17T18:19:18.484Z,14.75
2023-01-17T18:21:47.082Z,19.65
2023-01-17T18:28:55.546Z,16.25
2023-01-17T18:31:25.200Z,15.10
2023-01-17T18:33:57.205Z,16.50
2023-01-17T18:36:26.280Z,16.42
2023-01-17T18:38:54.539Z,13.80
2023-01-17T18:41:27.675Z,15.45
2023-01-17T18:43:56.072Z,16.33
2023-01-17T18:46:25.945Z,15.90
2023-01-17T18:48:56.672Z,16.50
2023-01-17T18:51:26.537Z,15.57
2023-01-17T18:53:54.721Z,17.13
2023-01-17T18:56:24.453Z,16.17
2023-01-17T18:58:52.738Z,14.48
2023-01-17T19:01:24.038Z,16.30
2023-01-17T19:03:54.893Z,16.60
2023-01-17T19:06:29.279Z,13.60
2023-01-17T19:09:00.831Z,13.93
2023-01-17T19:11:29.732Z,16.75
2023-01-17T19:13:58.040Z,13.45
2023-01-17T19:16:29.114Z,19.80
2023-01-17T19:19:01.688Z,14.27
2023-01-17T19:21:30.762Z,18.33
2023-01-17T19:23:59.161Z,18.30
2023-01-17T19:26:28.249Z,17.95
2023-01-17T19:28:58.696Z,18.52
2023-01-17T19:31:30.054Z,20.58
2023-01-17T19:34:00.032Z,20.25
2023-01-17T19:36:32.844Z,19.52
2023-01-17T19:39:05.955Z,19.02
2023-01-17T19:41:36.711Z,22.85
2023-01-17T19:44:07.862Z,20.50
2023-01-17T19:46:37.131Z,22.23
2023-01-17T19:49:07.863Z,22.15
2023-01-17T19:51:36.587Z,22.70
2023-01-17T19:54:04.904Z,22.83
2023-01-17T19:56:33.158Z,25.42
2023-01-17T19:59:02.044Z,24.30
2023-01-17T20:01:32.995Z,28.63
2023-01-17T20:04:02.944Z,26.65
2023-01-17T20:06:36.341Z,27.83
2023-01-17T20:09:06.276Z,29.20
2023-01-17T20:11:35.106Z,25.38
2023-01-17T20:14:04.223Z,35.03
2023-01-17T20:16:33.149Z,35.25
2023-01-17T20:19:01.559Z,39.65
2023-01-17T20:21:31.265Z,35.40
2023-01-17T20:24:00.724Z,35.80
2023-01-17T20:26:31.379Z,39.97
2023-01-17T20:28:59.747Z,38.67
2023-01-17T20:31:28.614Z,39.45
2023-01-17T20:33:57.317Z,42.40
2023-01-17T20:38:54.673Z,42.00
2023-01-17T20:41:27.104Z,42.30
2023-01-17T20:43:58.190Z,36.22
2023-01-17T20:46:28.656Z,32.53
2023-01-17T20:48:58.574Z,41.97
2023-01-17T20:51:29.702Z,41.10
2023-01-17T20:54:00.359Z,42.92
2023-01-17T20:56:28.991Z,40.22
2023-01-17T20:58:57.317Z,35.33
2023-01-17T21:01:25.853Z,38.38
2023-01-17T21:03:54.270Z,39.85
2023-01-17T21:06:24.152Z,41.28
2023-01-17T21:08:53.136Z,45.90
2023-01-17T21:11:24.470Z,39.22
2023-01-17T21:13:52.937Z,45.70
2023-01-17T21:16:22.704Z,40.33
2023-01-17T21:18:53.455Z,39.55
2023-01-17T21:21:24.936Z,38.85
2023-01-17T21:23:55.295Z,44.60
2023-01-17T21:26:25.183Z,47.75
2023-01-17T21:28:54.238Z,43.92
2023-01-17T21:31:28.240Z,46.55
2023-01-17T21:34:08.224Z,45.80
2023-01-17T21:36:38.935Z,42.90
2023-01-17T21:39:14.037Z,49.58
2023-01-17T21:41:43.865Z,50.78
2023-01-17T21:44:15.698Z,51.58
2023-01-17T21:46:44.074Z,51.30
2023-01-17T21:49:12.858Z,56.53
2023-01-17T21:51:42.404Z,50.58
2023-01-17T21:54:10.793Z,51.08
2023-01-17T21:56:38.976Z,54.78
2023-01-17T21:59:07.330Z,51.83
2023-01-17T22:01:35.631Z,45.88
2023-01-17T22:04:04.597Z,56.83
2023-01-17T22:06:34.753Z,56.72
2023-01-17T22:09:03.999Z,54.75
2023-01-17T22:11:32.315Z,48.53
2023-01-17T22:14:00.375Z,53.22
2023-01-17T22:16:28.671Z,46.03
2023-01-17T22:18:57.168Z,48.80
2023-01-17T22:21:28.061Z,52.17
2023-01-17T22:23:59.085Z,44.00
2023-01-17T22:26:30.736Z,50.28
2023-01-17T22:29:02.689Z,51.80
2023-01-17T22:31:31.687Z,48.45
2023-01-17T22:34:02.773Z,54.70
2023-01-17T22:36:33.378Z,47.58
2023-01-17T22:39:01.893Z,47.08
2023-01-17T22:41:30.977Z,44.75
2023-01-17T22:44:00.741Z,45.25
2023-01-17T22:46:32.156Z,45.80
2023-01-17T22:49:00.657Z,46.92
2023-01-17T22:51:29.567Z,42.60
2023-01-17T22:54:00.246Z,43.97
2023-01-17T22:56:33.033Z,46.67
2023-01-17T22:59:02.093Z,47.65
2023-01-17T23:01:32.929Z,46.75
2023-01-17T23:04:05.372Z,43.88
2023-01-17T23:06:38.935Z,46.63
2023-01-17T23:09:12.661Z,42.05
2023-01-17T23:11:52.396Z,43.22
2023-01-17T23:14:26.542Z,36.83
2023-01-17T23:17:03.139Z,44.97
2023-01-17T23:19:40.970Z,40.90
2023-01-17T23:22:20.409Z,42.95
2023-01-17T23:24:50.396Z,42.70
2023-01-17T23:27:37.989Z,43.95
2023-01-17T23:30:09.700Z,44.40
2023-01-17T23:32:39.323Z,47.05
2023-01-17T23:35:07.968Z,49.95
2023-01-17T23:37:36.299Z,44.72
2023-01-17T23:40:04.741Z,44.28
2023-01-17T23:42:32.958Z,46.22
2023-01-17T23:45:01.122Z,42.58
2023-01-17T23:47:29.494Z,43.95
2023-01-17T23:49:57.550Z,40.95
2023-01-17T23:52:25.786Z,43.47
2023-01-17T23:54:54.139Z,43.67
2023-01-17T23:57:22.416Z,42.83
2023-01-17T23:59:50.490Z,45.80
